createdAt,value
2017-03-23T00:00:47.397Z,88.57
2017-03-23T00:01:59.639Z,88.57
2017-03-23T00:03:11.849Z,89.14
2017-03-23T00:04:24.391Z,89.14
2017-03-23T00:05:36.902Z,89.24
2017-03-23T00:06:49.108Z,89.05
2017-03-23T00:08:01.657Z,88.48
2017-03-23T00:09:14.192Z,88.95
2017-03-23T00:10:26.414Z,89.05
2017-03-23T00:11:38.633Z,89.14
2017-03-23T00:12:50.862Z,89.14
2017-03-23T00:14:03.054Z,89.24
2017-03-23T00:15:15.269Z,89.24
2017-03-23T00:16:27.500Z,88.95
2017-03-23T00:17:39.739Z,89.62
2017-03-23T00:18:51.990Z,89.43
2017-03-23T00:20:04.542Z,89.53
2017-03-23T00:21:17.051Z,89.14
2017-03-23T00:22:29.277Z,89.53
2017-03-23T00:23:41.497Z,89.33
2017-03-23T00:24:53.409Z,89.53
2017-03-23T00:26:05.332Z,90
2017-03-23T00:27:16.928Z,90.38
2017-03-23T00:28:29.432Z,90.76
2017-03-23T00:29:41.060Z,90.66
2017-03-23T00:30:53.573Z,89.62
2017-03-23T00:32:05.794Z,90.28
2017-03-23T00:33:18.332Z,90.76
2017-03-23T00:34:30.861Z,90.38
2017-03-23T00:35:43.378Z,90.57
2017-03-23T00:36:55.627Z,90.28
2017-03-23T00:38:07.552Z,90.28
2017-03-23T00:39:19.786Z,90.85
2017-03-23T00:40:32.340Z,91.24
2017-03-23T00:41:44.861Z,91.42
2017-03-23T00:42:57.374Z,91.33
2017-03-23T00:44:09.603Z,90.85
2017-03-23T00:45:22.124Z,90.85
2017-03-23T00:46:34.341Z,91.33
2017-03-23T00:47:46.561Z,91.14
2017-03-23T00:48:58.782Z,91.42
2017-03-23T00:50:11.301Z,91.61
2017-03-23T00:51:23.821Z,91.14
2017-03-23T00:52:36.028Z,91.33
2017-03-23T00:53:48.563Z,91.61
2017-03-23T00:55:00.791Z,91.89
2017-03-23T00:56:13.008Z,91.89
2017-03-23T00:57:25.230Z,91.8
2017-03-23T00:58:37.472Z,91.71
2017-03-23T00:59:49.729Z,92.18
2017-03-23T01:01:02.274Z,92.09
2017-03-23T01:02:14.815Z,91.99
2017-03-23T01:03:27.358Z,92.28
2017-03-23T01:04:39.876Z,92.18
2017-03-23T01:05:51.772Z,92.85
2017-03-23T01:07:04.245Z,92.09
2017-03-23T01:08:16.732Z,92.28
2017-03-23T01:09:29.260Z,91.8
2017-03-23T01:10:41.464Z,92.18
2017-03-23T01:11:53.668Z,92.18
2017-03-23T01:13:05.872Z,92.37
2017-03-23T01:14:18.118Z,91.89
2017-03-23T01:15:30.675Z,92.37
2017-03-23T01:16:42.574Z,91.99
2017-03-23T01:17:55.114Z,92.56
2017-03-23T01:19:07.037Z,92.75
2017-03-23T01:20:19.575Z,92.18
2017-03-23T01:21:32.102Z,92.28
2017-03-23T01:22:44.623Z,92.09
2017-03-23T01:23:56.840Z,92.18
2017-03-23T01:25:09.057Z,92.85
2017-03-23T01:26:21.561Z,93.41
2017-03-23T01:27:34.077Z,93.41
2017-03-23T01:28:46.601Z,93.51
2017-03-23T01:29:58.847Z,93.04
2017-03-23T01:31:11.345Z,92.85
2017-03-23T01:32:23.868Z,93.13
2017-03-23T01:33:36.410Z,93.13
2017-03-23T01:34:48.656Z,93.6
2017-03-23T01:36:01.170Z,93.41
2017-03-23T01:37:13.674Z,92.75
2017-03-23T01:38:26.202Z,92.66
2017-03-23T01:39:38.695Z,92.75
2017-03-23T01:40:51.210Z,92.75
2017-03-23T01:42:03.431Z,92.94
2017-03-23T01:43:15.655Z,93.23
2017-03-23T01:44:27.890Z,93.51
2017-03-23T01:45:40.124Z,93.6
2017-03-23T01:46:52.032Z,93.6
2017-03-23T01:48:04.286Z,93.23
2017-03-23T01:49:16.804Z,93.13
2017-03-23T01:50:29.371Z,93.23
2017-03-23T01:51:41.571Z,93.51
2017-03-23T01:52:53.772Z,93.51
2017-03-23T01:54:05.991Z,93.51
2017-03-23T01:55:18.529Z,94.27
2017-03-23T01:56:30.753Z,94.27
2017-03-23T01:57:42.679Z,93.8
2017-03-23T01:58:54.600Z,94.18
2017-03-23T02:00:07.149Z,94.18
2017-03-23T02:01:19.688Z,93.51
2017-03-23T02:02:32.213Z,93.41
2017-03-23T02:03:44.750Z,93.6
2017-03-23T02:04:56.958Z,93.51
2017-03-23T02:06:08.893Z,93.41
2017-03-23T02:07:21.117Z,93.99
2017-03-23T02:08:33.366Z,94.37
2017-03-23T02:09:45.584Z,93.6
2017-03-23T02:10:58.114Z,94.27
2017-03-23T02:12:10.350Z,93.7
2017-03-23T02:13:22.600Z,93.8
2017-03-23T02:14:35.101Z,93.99
2017-03-23T02:15:47.310Z,93.41
2017-03-23T02:16:59.513Z,93.6
2017-03-23T02:18:12.027Z,93.32
2017-03-23T02:19:24.575Z,93.51
2017-03-23T02:20:37.100Z,93.32
2017-03-23T02:21:49.026Z,94.18
2017-03-23T02:23:00.971Z,94.37
2017-03-23T02:24:13.235Z,93.99
2017-03-23T02:25:25.480Z,94.37
2017-03-23T02:26:38.016Z,94.27
2017-03-23T02:27:50.243Z,94.46
2017-03-23T02:29:02.466Z,94.27
2017-03-23T02:30:14.997Z,94.08
2017-03-23T02:31:27.515Z,94.18
2017-03-23T02:32:39.426Z,94.18
2017-03-23T02:33:51.649Z,93.89
2017-03-23T02:35:03.872Z,93.89
2017-03-23T02:36:15.826Z,93.89
2017-03-23T02:37:27.748Z,94.27
2017-03-23T02:38:40.290Z,94.08
2017-03-23T02:39:52.517Z,94.37
2017-03-23T02:41:05.062Z,94.65
2017-03-23T02:42:17.271Z,94.56
2017-03-23T02:43:29.779Z,94.74
2017-03-23T02:44:41.716Z,94.37
2017-03-23T02:45:53.920Z,94.74
2017-03-23T02:47:05.865Z,94.56
2017-03-23T02:48:18.403Z,95.03
2017-03-23T02:49:30.921Z,95.12
2017-03-23T02:50:43.449Z,94.37
2017-03-23T02:51:55.990Z,95.22
2017-03-23T02:53:07.943Z,95.03
2017-03-23T02:54:20.465Z,95.12
2017-03-23T02:55:33.008Z,94.56
2017-03-23T02:56:45.522Z,95.22
2017-03-23T02:57:57.742Z,94.56
2017-03-23T02:59:10.267Z,95.12
2017-03-23T03:00:22.512Z,95.12
2017-03-23T03:01:35.063Z,95.03
2017-03-23T03:02:47.269Z,94.84
2017-03-23T03:03:59.201Z,95.12
2017-03-23T03:05:11.751Z,95.03
2017-03-23T03:06:24.296Z,95.22
2017-03-23T03:07:36.247Z,95.03
2017-03-23T03:08:48.766Z,95.51
2017-03-23T03:10:01.026Z,94.46
2017-03-23T03:11:12.927Z,95.22
2017-03-23T03:12:25.468Z,94.93
2017-03-23T03:13:38.000Z,95.03
2017-03-23T03:14:49.598Z,94.56
2017-03-23T03:16:01.809Z,95.03
2017-03-23T03:17:14.363Z,95.31
2017-03-23T03:18:26.576Z,95.22
2017-03-23T03:19:39.111Z,95.12
2017-03-23T03:20:50.698Z,94.84
2017-03-23T03:22:02.946Z,95.41
2017-03-23T03:23:14.264Z,94.93
2017-03-23T03:24:26.757Z,95.51
2017-03-23T03:25:38.977Z,95.12
2017-03-23T03:26:50.882Z,95.31
2017-03-23T03:28:03.119Z,95.51
2017-03-23T03:29:15.664Z,95.41
2017-03-23T03:30:27.890Z,95.79
2017-03-23T03:31:40.104Z,95.79
2017-03-23T03:32:52.299Z,95.6
2017-03-23T03:34:04.508Z,95.6
2017-03-23T03:35:17.027Z,95.79
2017-03-23T03:36:29.573Z,95.89
2017-03-23T03:37:41.819Z,95.98
2017-03-23T03:38:54.314Z,96.08
2017-03-23T03:40:06.874Z,95.98
2017-03-23T03:41:18.799Z,95.6
2017-03-23T03:42:31.352Z,95.89
2017-03-23T03:43:43.870Z,95.51
2017-03-23T03:44:56.067Z,95.7
2017-03-23T03:46:08.591Z,95.98
2017-03-23T03:47:21.154Z,96.08
2017-03-23T03:48:33.683Z,96.64
2017-03-23T03:49:46.221Z,95.79
2017-03-23T03:50:58.763Z,96.64
2017-03-23T03:52:10.688Z,95.7
2017-03-23T03:53:23.240Z,95.89
2017-03-23T03:54:35.763Z,96.08
2017-03-23T03:55:48.283Z,96.64
2017-03-23T03:56:59.921Z,95.89
2017-03-23T03:58:12.127Z,95.98
2017-03-23T03:59:24.342Z,96.26
2017-03-23T04:00:36.588Z,96.64
2017-03-23T04:01:48.862Z,96.08
2017-03-23T04:03:01.382Z,96.08
2017-03-23T04:04:13.600Z,96.36
2017-03-23T04:05:25.817Z,96.36
2017-03-23T04:06:37.772Z,96.64
2017-03-23T04:07:49.993Z,96.64
2017-03-23T04:09:02.527Z,96.55
2017-03-23T04:10:14.723Z,96.41
2017-03-23T04:11:27.473Z,96.45
2017-03-23T04:12:39.725Z,96.36
2017-03-23T04:13:51.364Z,96.64
2017-03-23T04:15:03.593Z,97.31
2017-03-23T04:16:15.803Z,96.64
2017-03-23T04:17:28.327Z,96.78
2017-03-23T04:18:40.552Z,96.59
2017-03-23T04:19:52.443Z,96.64
2017-03-23T04:21:04.965Z,96.36
2017-03-23T04:22:17.190Z,96.36
2017-03-23T04:23:29.367Z,95.98
2017-03-23T04:24:41.932Z,96.64
2017-03-23T04:25:53.853Z,96.41
2017-03-23T04:27:06.370Z,97.07
2017-03-23T04:28:18.623Z,96.5
2017-03-23T04:29:30.840Z,96.64
2017-03-23T04:30:42.761Z,96.88
2017-03-23T04:31:54.977Z,97.12
2017-03-23T04:33:07.454Z,97.17
2017-03-23T04:34:19.679Z,97.12
2017-03-23T04:35:32.204Z,97.02
2017-03-23T04:36:44.421Z,97.12
2017-03-23T04:37:56.329Z,96.17
2017-03-23T04:39:08.837Z,96.69
2017-03-23T04:40:21.072Z,96.64
2017-03-23T04:41:33.603Z,96.41
2017-03-23T04:42:46.147Z,96.31
2017-03-23T04:43:58.020Z,97.31
2017-03-23T04:45:09.986Z,96.36
2017-03-23T04:46:22.201Z,96.64
2017-03-23T04:47:34.432Z,96.45
2017-03-23T04:48:46.343Z,96.55
2017-03-23T04:49:58.867Z,97.02
2017-03-23T04:51:11.417Z,96.45
2017-03-23T04:52:23.633Z,96.55
2017-03-23T04:53:36.160Z,97.12
2017-03-23T04:54:48.383Z,96.55
2017-03-23T04:56:00.918Z,96.36
2017-03-23T04:57:13.147Z,96.64
2017-03-23T04:58:25.666Z,96.74
2017-03-23T04:59:37.888Z,96.03
2017-03-23T05:00:50.134Z,96.08
2017-03-23T05:02:02.636Z,95.98
2017-03-23T05:03:14.852Z,96.08
2017-03-23T05:04:27.400Z,95.79
2017-03-23T05:05:39.622Z,96.08
2017-03-23T05:06:52.157Z,96.17
2017-03-23T05:08:04.339Z,96.22
2017-03-23T05:09:16.558Z,96.12
2017-03-23T05:10:29.093Z,96.59
2017-03-23T05:11:41.589Z,96.64
2017-03-23T05:12:53.489Z,96.36
2017-03-23T05:14:06.013Z,96.45
2017-03-23T05:15:17.957Z,96.26
2017-03-23T05:16:30.126Z,95.79
2017-03-23T05:17:42.052Z,95.89
2017-03-23T05:18:53.990Z,95.41
2017-03-23T05:20:06.536Z,96.26
2017-03-23T05:21:18.482Z,95.89
2017-03-23T05:22:31.004Z,95.79
2017-03-23T05:23:43.506Z,96.17
2017-03-23T05:24:55.126Z,95.89
2017-03-23T05:26:06.740Z,95.89
2017-03-23T05:27:18.686Z,96.08
2017-03-23T05:28:31.182Z,95.98
2017-03-23T05:29:42.782Z,95.41
2017-03-23T05:30:54.999Z,95.98
2017-03-23T05:32:07.183Z,95.6
2017-03-23T05:33:19.702Z,95.79
2017-03-23T05:34:31.944Z,95.6
2017-03-23T05:35:44.171Z,95.51
2017-03-23T05:36:56.112Z,95.22
2017-03-23T05:38:08.903Z,94.65
2017-03-23T05:39:21.471Z,95.22
2017-03-23T05:40:33.667Z,95.12
2017-03-23T05:41:45.892Z,95.51
2017-03-23T05:42:57.809Z,94.84
2017-03-23T05:44:10.306Z,94.93
2017-03-23T05:45:22.505Z,94.93
2017-03-23T05:46:35.050Z,95.31
2017-03-23T05:47:47.601Z,95.41
2017-03-23T05:48:59.539Z,95.03
2017-03-23T05:50:11.759Z,95.22
2017-03-23T05:51:24.316Z,94.37
2017-03-23T05:52:36.858Z,95.12
2017-03-23T05:53:49.050Z,94.08
2017-03-23T05:55:01.596Z,94.27
2017-03-23T05:56:14.101Z,94.46
2017-03-23T05:57:26.046Z,94.18
2017-03-23T05:58:38.580Z,94.65
2017-03-23T05:59:51.152Z,94.37
2017-03-23T06:01:03.676Z,94.08
2017-03-23T06:02:15.302Z,94.27
2017-03-23T06:03:27.816Z,93.6
2017-03-23T06:04:40.344Z,93.99
2017-03-23T06:05:52.568Z,94.37
2017-03-23T06:07:04.488Z,93.99
2017-03-23T06:08:17.023Z,94.18
2017-03-23T06:09:29.544Z,94.46
2017-03-23T06:10:42.039Z,94.46
2017-03-23T06:11:53.644Z,94.56
2017-03-23T06:13:06.185Z,95.12
2017-03-23T06:14:18.731Z,95.31
2017-03-23T06:15:31.281Z,95.22
2017-03-23T06:16:43.822Z,95.51
2017-03-23T06:17:56.347Z,95.22
2017-03-23T06:19:08.864Z,95.51
2017-03-23T06:20:21.117Z,95.12
2017-03-23T06:21:33.933Z,95.03
2017-03-23T06:22:45.836Z,95.79
2017-03-23T06:23:58.382Z,96.45
2017-03-23T06:25:10.599Z,97.12
2017-03-23T06:26:23.136Z,96.74
2017-03-23T06:27:35.657Z,96.83
2017-03-23T06:28:48.188Z,97.02
2017-03-23T06:29:59.831Z,97.78
2017-03-23T06:31:11.771Z,97.5
2017-03-23T06:32:23.983Z,98.26
2017-03-23T06:33:36.523Z,97.02
2017-03-23T06:34:48.746Z,97.12
2017-03-23T06:36:01.258Z,97.69
2017-03-23T06:37:13.210Z,97.69
2017-03-23T06:38:25.745Z,97.69
2017-03-23T06:39:38.266Z,98.16
2017-03-23T06:40:50.487Z,98.73
2017-03-23T06:42:02.710Z,98.73
2017-03-23T06:43:15.507Z,99.3
2017-03-23T06:44:27.732Z,99.11
2017-03-23T06:45:40.229Z,99.4
2017-03-23T06:46:52.133Z,99.3
2017-03-23T06:48:04.689Z,99.99
2017-03-23T06:49:16.587Z,99.77
2017-03-23T06:50:29.113Z,99.87
2017-03-23T06:51:41.626Z,99.68
2017-03-23T06:52:53.882Z,99.99
2017-03-23T06:54:06.406Z,99.99
2017-03-23T06:55:18.675Z,99.99
2017-03-23T06:56:31.213Z,99.99
2017-03-23T06:57:43.760Z,99.99
2017-03-23T06:58:55.987Z,99.99
2017-03-23T07:00:08.226Z,99.99
2017-03-23T07:01:20.768Z,99.99
2017-03-23T07:02:32.968Z,99.99
2017-03-23T07:03:45.183Z,99.99
2017-03-23T07:04:57.109Z,99.99
2017-03-23T07:06:09.635Z,99.99
2017-03-23T07:07:22.180Z,99.99
2017-03-23T07:08:34.733Z,99.99
2017-03-23T07:09:47.276Z,99.99
2017-03-23T07:10:59.818Z,99.99
2017-03-23T07:12:12.031Z,99.99
2017-03-23T07:13:23.969Z,99.99
2017-03-23T07:14:36.502Z,99.99
2017-03-23T07:15:49.005Z,99.99
2017-03-23T07:17:01.197Z,99.99
2017-03-23T07:18:13.694Z,99.99
2017-03-23T07:19:26.206Z,99.99
2017-03-23T07:20:38.437Z,99.99
2017-03-23T07:21:50.381Z,99.99
2017-03-23T07:23:02.907Z,99.99
2017-03-23T07:24:15.447Z,99.99
2017-03-23T07:25:27.939Z,99.99
2017-03-23T07:26:39.832Z,99.99
2017-03-23T07:27:52.114Z,99.99
2017-03-23T07:29:04.659Z,99.99
2017-03-23T07:30:17.248Z,99.99
2017-03-23T07:31:29.798Z,99.99
2017-03-23T07:32:41.721Z,99.99
2017-03-23T07:33:53.972Z,99.99
2017-03-23T07:35:06.564Z,99.99
2017-03-23T07:36:18.783Z,99.99
2017-03-23T07:37:30.734Z,99.99
2017-03-23T07:38:42.646Z,99.99
2017-03-23T07:39:54.570Z,99.99
2017-03-23T07:41:07.120Z,99.99
2017-03-23T07:42:19.054Z,99.99
2017-03-23T07:43:31.253Z,99.99
2017-03-23T07:44:43.856Z,99.99
2017-03-23T07:45:56.103Z,99.99
2017-03-23T07:47:08.637Z,99.99
2017-03-23T07:48:20.822Z,99.99
2017-03-23T07:49:33.049Z,99.99
2017-03-23T07:50:45.576Z,99.99
2017-03-23T07:51:57.800Z,99.99
2017-03-23T07:53:10.026Z,99.99
2017-03-23T07:54:22.288Z,99.99
2017-03-23T07:55:34.791Z,99.99
2017-03-23T07:56:47.317Z,99.99
2017-03-23T07:57:59.862Z,99.99
2017-03-23T07:59:12.072Z,99.99
2017-03-23T08:00:24.275Z,99.99
2017-03-23T08:01:36.513Z,99.99
2017-03-23T08:02:48.433Z,99.99
2017-03-23T08:04:00.666Z,99.99
2017-03-23T08:05:13.213Z,99.99
2017-03-23T08:06:25.423Z,99.99
2017-03-23T08:07:37.346Z,99.99
2017-03-23T08:08:49.564Z,99.99
2017-03-23T08:10:02.044Z,99.99
2017-03-23T08:11:14.292Z,99.99
2017-03-23T08:12:26.529Z,99.99
2017-03-23T08:13:38.739Z,99.99
2017-03-23T08:14:50.980Z,99.99
2017-03-23T08:16:03.497Z,99.99
2017-03-23T08:17:16.010Z,99.99
2017-03-23T08:18:27.906Z,99.99
2017-03-23T08:19:40.110Z,99.99
2017-03-23T08:20:52.632Z,99.99
2017-03-23T08:22:05.152Z,99.99
2017-03-23T08:23:17.364Z,99.99
2017-03-23T08:24:29.272Z,99.99
2017-03-23T08:25:41.561Z,99.99
2017-03-23T08:26:53.786Z,99.99
2017-03-23T08:28:06.011Z,99.99
2017-03-23T08:29:18.253Z,99.99
2017-03-23T08:30:30.469Z,99.99
2017-03-23T08:31:42.999Z,99.99
2017-03-23T08:32:55.248Z,99.99
2017-03-23T08:34:07.489Z,99.99
2017-03-23T08:35:20.007Z,99.99
2017-03-23T08:36:32.246Z,99.99
2017-03-23T08:37:44.783Z,99.99
2017-03-23T08:38:57.320Z,99.99
2017-03-23T08:40:09.837Z,99.99
2017-03-23T08:41:22.377Z,99.99
2017-03-23T08:42:34.011Z,99.99
2017-03-23T08:43:46.532Z,99.99
2017-03-23T08:44:58.777Z,99.99
2017-03-23T08:46:11.021Z,99.99
2017-03-23T08:47:23.537Z,99.99
2017-03-23T08:48:34.880Z,99.99
2017-03-23T08:49:47.412Z,99.99
2017-03-23T08:50:59.972Z,99.99
2017-03-23T08:52:12.529Z,99.99
2017-03-23T08:53:25.029Z,99.99
2017-03-23T08:54:37.567Z,99.99
2017-03-23T08:55:50.088Z,99.99
2017-03-23T08:57:02.605Z,99.99
2017-03-23T08:58:15.134Z,99.99
2017-03-23T08:59:27.076Z,99.99
2017-03-23T09:00:39.617Z,99.99
2017-03-23T09:01:52.168Z,99.99
2017-03-23T09:03:04.714Z,99.99
2017-03-23T09:04:17.252Z,99.99
2017-03-23T09:05:29.781Z,99.99
2017-03-23T09:06:42.330Z,99.99
2017-03-23T09:07:54.867Z,99.99
2017-03-23T09:09:07.110Z,99.99
2017-03-23T09:10:19.643Z,99.99
2017-03-23T09:11:32.203Z,99.99
2017-03-23T09:12:44.740Z,99.99
2017-03-23T09:13:56.944Z,99.99
2017-03-23T09:15:09.171Z,99.99
2017-03-23T09:16:21.122Z,99.99
2017-03-23T09:17:33.339Z,99.99
2017-03-23T09:18:45.853Z,99.99
2017-03-23T09:19:58.374Z,99.99
2017-03-23T09:21:10.598Z,99.99
2017-03-23T09:22:22.823Z,99.99
2017-03-23T09:23:35.061Z,99.99
2017-03-23T09:24:47.585Z,99.99
2017-03-23T09:26:00.139Z,99.99
2017-03-23T09:27:12.081Z,99.99
2017-03-23T09:28:24.306Z,99.99
2017-03-23T09:29:36.841Z,99.99
2017-03-23T09:30:49.390Z,99.99
2017-03-23T09:32:01.916Z,99.99
2017-03-23T09:33:14.453Z,99.99
2017-03-23T09:34:26.378Z,99.99
2017-03-23T09:35:38.921Z,99.99
2017-03-23T09:36:51.475Z,99.99
2017-03-23T09:38:03.990Z,99.99
2017-03-23T09:39:15.914Z,99.99
2017-03-23T09:40:28.516Z,99.99
2017-03-23T09:41:40.751Z,99.99
2017-03-23T09:42:53.295Z,99.99
2017-03-23T09:44:05.820Z,99.99
2017-03-23T09:45:17.769Z,99.99
2017-03-23T09:46:29.992Z,99.99
2017-03-23T09:47:42.512Z,99.99
2017-03-23T09:48:55.039Z,99.99
2017-03-23T09:50:07.603Z,99.99
2017-03-23T09:51:19.551Z,99.11
2017-03-23T09:52:31.778Z,99.99
2017-03-23T09:53:44.312Z,99.99
2017-03-23T09:54:56.562Z,99.99
2017-03-23T09:56:08.206Z,99.99
2017-03-23T09:57:20.736Z,99.99
2017-03-23T09:58:33.271Z,99.97
2017-03-23T09:59:45.797Z,99.99
2017-03-23T10:00:58.047Z,99.99
2017-03-23T10:02:10.584Z,99.69
2017-03-23T10:03:23.134Z,99.99
2017-03-23T10:04:35.680Z,99.99
2017-03-23T10:05:48.196Z,99.4
2017-03-23T10:07:00.743Z,99.69
2017-03-23T10:08:12.963Z,99.99
2017-03-23T10:09:25.506Z,99.99
2017-03-23T10:10:38.037Z,99.97
2017-03-23T10:11:50.273Z,99.99
2017-03-23T10:13:02.500Z,99.88
2017-03-23T10:14:14.743Z,99.5
2017-03-23T10:15:27.286Z,99.99
2017-03-23T10:16:39.510Z,99.74
2017-03-23T10:17:51.744Z,99.93
2017-03-23T10:19:04.276Z,99.99
2017-03-23T10:20:16.798Z,99.93
2017-03-23T10:21:29.029Z,99.45
2017-03-23T10:22:40.961Z,99.99
2017-03-23T10:23:53.489Z,99.26
2017-03-23T10:25:05.685Z,99.74
2017-03-23T10:26:17.952Z,99.74
2017-03-23T10:27:30.174Z,99.74
2017-03-23T10:28:42.390Z,98.79
2017-03-23T10:29:54.918Z,98.97
2017-03-23T10:31:07.145Z,98.88
2017-03-23T10:32:19.685Z,98.79
2017-03-23T10:33:31.935Z,98.88
2017-03-23T10:34:44.452Z,99.26
2017-03-23T10:35:56.695Z,98.97
2017-03-23T10:37:09.221Z,97.93
2017-03-23T10:38:21.735Z,98.07
2017-03-23T10:39:33.665Z,98.55
2017-03-23T10:40:45.913Z,98.55
2017-03-23T10:41:58.445Z,99.07
2017-03-23T10:43:10.053Z,99.4
2017-03-23T10:44:22.299Z,99.78
2017-03-23T10:45:34.834Z,99.78
2017-03-23T10:46:47.354Z,99.3
2017-03-23T10:47:59.575Z,99.59
2017-03-23T10:49:12.100Z,99.78
2017-03-23T10:50:24.345Z,99.99
2017-03-23T10:51:36.571Z,99.59
2017-03-23T10:52:48.816Z,99.78
2017-03-23T10:54:01.041Z,99.59
2017-03-23T10:55:13.000Z,99.78
2017-03-23T10:56:25.234Z,99.11
2017-03-23T10:57:37.471Z,99.4
2017-03-23T10:58:49.413Z,99.5
2017-03-23T11:00:01.944Z,99.02
2017-03-23T11:01:14.505Z,98.83
2017-03-23T11:02:27.030Z,99.21
2017-03-23T11:03:39.284Z,98.83
2017-03-23T11:04:51.525Z,98.26
2017-03-23T11:06:03.771Z,99.21
2017-03-23T11:07:16.338Z,98.55
2017-03-23T11:08:28.591Z,98.45
2017-03-23T11:09:41.130Z,98.26
2017-03-23T11:10:53.385Z,98.45
2017-03-23T11:12:05.621Z,99.5
2017-03-23T11:13:17.572Z,99.3
2017-03-23T11:14:29.814Z,99.4
2017-03-23T11:15:42.032Z,98.93
2017-03-23T11:16:53.927Z,97.88
2017-03-23T11:18:06.459Z,99.97
2017-03-23T11:19:18.402Z,99.02
2017-03-23T11:20:30.339Z,99.88
2017-03-23T11:21:42.547Z,99.11
2017-03-23T11:22:55.081Z,98.93
2017-03-23T11:24:07.306Z,97.88
2017-03-23T11:25:19.860Z,98.26
2017-03-23T11:26:32.402Z,98.36
2017-03-23T11:27:44.894Z,97.97
2017-03-23T11:28:57.422Z,99.4
2017-03-23T11:30:09.670Z,99.78
2017-03-23T11:31:21.943Z,99.5
2017-03-23T11:32:34.485Z,99.5
2017-03-23T11:33:47.002Z,99.97
2017-03-23T11:34:58.627Z,99.99
2017-03-23T11:36:10.870Z,99.88
2017-03-23T11:37:23.112Z,99.99
2017-03-23T11:38:35.682Z,99.97
2017-03-23T11:39:47.910Z,99.78
2017-03-23T11:41:00.453Z,99.99
2017-03-23T11:42:12.977Z,99.99
2017-03-23T11:43:25.512Z,99.99
2017-03-23T11:44:37.445Z,99.69
2017-03-23T11:45:50.003Z,99.5
2017-03-23T11:47:02.230Z,98.83
2017-03-23T11:48:14.756Z,99.5
2017-03-23T11:49:26.972Z,99.4
2017-03-23T11:50:39.516Z,99.88
2017-03-23T11:51:51.760Z,99.99
2017-03-23T11:53:03.692Z,99.97
2017-03-23T11:54:15.633Z,99.5
2017-03-23T11:55:28.183Z,99.99
2017-03-23T11:56:40.721Z,99.69
2017-03-23T11:57:53.274Z,99.5
2017-03-23T11:59:05.823Z,98.45
2017-03-23T12:00:18.359Z,98.83
2017-03-23T12:01:30.301Z,98.83
2017-03-23T12:02:42.500Z,99.11
2017-03-23T12:03:55.054Z,99.69
2017-03-23T12:05:07.590Z,98.93
2017-03-23T12:06:20.147Z,97.97
2017-03-23T12:07:32.391Z,98.26
2017-03-23T12:08:44.609Z,99.21
2017-03-23T12:09:57.130Z,99.78
2017-03-23T12:11:09.668Z,99.59
2017-03-23T12:12:21.901Z,99.59
2017-03-23T12:13:34.135Z,99.4
2017-03-23T12:14:46.694Z,99.83
2017-03-23T12:15:59.236Z,98.88
2017-03-23T12:17:11.147Z,98.83
2017-03-23T12:18:23.373Z,99.59
2017-03-23T12:19:35.899Z,99.73
2017-03-23T12:20:48.113Z,99.97
2017-03-23T12:21:59.757Z,99.99
2017-03-23T12:23:11.980Z,99.99
2017-03-23T12:24:24.190Z,99.99
2017-03-23T12:25:36.702Z,99.97
2017-03-23T12:26:49.215Z,99.5
2017-03-23T12:28:01.449Z,99.4
2017-03-23T12:29:13.385Z,99.88
2017-03-23T12:30:25.040Z,99.5
2017-03-23T12:31:36.974Z,99.4
2017-03-23T12:32:49.207Z,99.88
2017-03-23T12:34:01.744Z,99.5
2017-03-23T12:35:12.773Z,99.11
2017-03-23T12:36:25.297Z,99.5
2017-03-23T12:37:37.557Z,99.99
2017-03-23T12:38:50.078Z,99.11
2017-03-23T12:40:02.307Z,98.36
2017-03-23T12:41:14.849Z,98.93
2017-03-23T12:42:27.398Z,98.83
2017-03-23T12:43:39.616Z,99.4
2017-03-23T12:44:52.157Z,99.02
2017-03-23T12:46:04.707Z,99.99
2017-03-23T12:47:17.275Z,98.79
2017-03-23T12:48:29.518Z,99.26
2017-03-23T12:49:42.037Z,99.07
2017-03-23T12:50:54.559Z,99.07
2017-03-23T12:52:06.821Z,99.84
2017-03-23T12:53:19.054Z,98.69
2017-03-23T12:54:30.679Z,99.84
2017-03-23T12:55:43.217Z,98.5
2017-03-23T12:56:55.439Z,98.6
2017-03-23T12:58:07.688Z,99.45
2017-03-23T12:59:19.933Z,97.64
2017-03-23T13:00:32.162Z,98.55
2017-03-23T13:01:44.734Z,98.55
2017-03-23T13:02:56.675Z,97.98
2017-03-23T13:04:09.251Z,96.46
2017-03-23T13:05:21.496Z,96.08
2017-03-23T13:06:33.730Z,97.79
2017-03-23T13:07:45.915Z,99.02
2017-03-23T13:08:58.454Z,96.46
2017-03-23T13:10:10.669Z,97.79
2017-03-23T13:11:23.193Z,97.5
2017-03-23T13:12:35.751Z,96.55
2017-03-23T13:13:48.256Z,95.7
2017-03-23T13:15:00.186Z,95.79
2017-03-23T13:16:12.435Z,96.94
2017-03-23T13:17:24.380Z,98.08
2017-03-23T13:18:36.597Z,96.94
2017-03-23T13:19:48.836Z,97.22
2017-03-23T13:21:01.385Z,96.17
2017-03-23T13:22:13.915Z,96.46
2017-03-23T13:23:26.154Z,96.46
2017-03-23T13:24:38.376Z,96.65
2017-03-23T13:25:50.923Z,96.26
2017-03-23T13:27:03.164Z,95.7
2017-03-23T13:28:15.710Z,96.26
2017-03-23T13:29:27.336Z,95.6
2017-03-23T13:30:39.558Z,95.79
2017-03-23T13:31:52.124Z,95.89
2017-03-23T13:33:04.349Z,95.51
2017-03-23T13:34:16.894Z,95.89
2017-03-23T13:35:29.415Z,97.13
2017-03-23T13:36:41.962Z,96.94
2017-03-23T13:37:53.611Z,95.32
2017-03-23T13:39:05.824Z,95.32
2017-03-23T13:40:18.369Z,95.51
2017-03-23T13:41:30.599Z,97.22
2017-03-23T13:42:43.120Z,97.69
2017-03-23T13:43:55.636Z,96.55
2017-03-23T13:45:07.279Z,95.79
2017-03-23T13:46:19.496Z,95.22
2017-03-23T13:47:32.028Z,95.32
2017-03-23T13:48:44.299Z,95.79
2017-03-23T13:49:56.844Z,95.32
2017-03-23T13:51:09.365Z,95.22
2017-03-23T13:52:21.886Z,94.46
2017-03-23T13:53:34.454Z,95.32
2017-03-23T13:54:46.976Z,96.08
2017-03-23T13:55:58.896Z,95.17
2017-03-23T13:57:11.445Z,95.75
2017-03-23T13:58:23.963Z,95.41
2017-03-23T13:59:36.184Z,95.41
2017-03-23T14:00:48.389Z,94.98
2017-03-23T14:02:00.329Z,95.36
2017-03-23T14:03:12.864Z,95.79
2017-03-23T14:04:25.370Z,95.7
2017-03-23T14:05:37.909Z,95.94
2017-03-23T14:06:49.840Z,94.84
2017-03-23T14:08:02.105Z,96.41
2017-03-23T14:09:14.601Z,94.56
2017-03-23T14:10:26.818Z,94.65
2017-03-23T14:11:39.362Z,93.79
2017-03-23T14:12:51.603Z,94.56
2017-03-23T14:14:04.110Z,94.84
2017-03-23T14:15:16.326Z,95.51
2017-03-23T14:16:28.569Z,94.93
2017-03-23T14:17:41.072Z,94.84
2017-03-23T14:18:52.993Z,94.93
2017-03-23T14:20:05.214Z,95.79
2017-03-23T14:21:17.439Z,94.84
2017-03-23T14:22:29.340Z,96.08
2017-03-23T14:23:41.280Z,95.89
2017-03-23T14:24:53.820Z,96.26
2017-03-23T14:26:06.364Z,95.98
2017-03-23T14:27:18.910Z,96.17
2017-03-23T14:28:31.160Z,96.6
2017-03-23T14:29:43.756Z,96.46
2017-03-23T14:30:56.298Z,95.27
2017-03-23T14:32:08.548Z,95.75
2017-03-23T14:33:20.794Z,96.6
2017-03-23T14:34:32.991Z,96.5
2017-03-23T14:35:45.537Z,96.89
2017-03-23T14:36:58.132Z,96.5
2017-03-23T14:38:10.332Z,97.27
2017-03-23T14:39:22.302Z,97.83
2017-03-23T14:40:34.249Z,97.55
2017-03-23T14:41:46.467Z,97.27
2017-03-23T14:42:58.993Z,97.36
2017-03-23T14:44:11.507Z,97.83
2017-03-23T14:45:24.033Z,97.55
2017-03-23T14:46:36.621Z,96.69
2017-03-23T14:47:49.191Z,98.12
2017-03-23T14:49:01.720Z,98.31
2017-03-23T14:50:13.962Z,97.93
2017-03-23T14:51:26.462Z,98.41
2017-03-23T14:52:38.983Z,97.45
2017-03-23T14:53:51.242Z,97.64
2017-03-23T14:55:03.470Z,97.36
2017-03-23T14:56:15.753Z,97.93
2017-03-23T14:57:28.309Z,97.74
2017-03-23T14:58:40.854Z,97.45
2017-03-23T14:59:53.397Z,97.55
2017-03-23T15:01:05.618Z,97.17
2017-03-23T15:02:17.814Z,97.55
2017-03-23T15:03:29.438Z,97.08
2017-03-23T15:04:41.691Z,97.08
2017-03-23T15:05:53.611Z,96.98
2017-03-23T15:07:05.872Z,96.89
2017-03-23T15:08:18.393Z,96.84
2017-03-23T15:09:30.325Z,97.6
2017-03-23T15:10:41.968Z,97.31
2017-03-23T15:11:54.509Z,98.03
2017-03-23T15:13:06.214Z,96.65
2017-03-23T15:14:18.755Z,96.93
2017-03-23T15:15:30.969Z,96.84
2017-03-23T15:16:43.490Z,97.31
2017-03-23T15:17:55.425Z,97.03
2017-03-23T15:19:07.644Z,97.12
2017-03-23T15:20:20.156Z,97.03
2017-03-23T15:21:32.386Z,97.41
2017-03-23T15:22:44.912Z,97.03
2017-03-23T15:23:57.415Z,97.41
2017-03-23T15:25:09.644Z,98.07
2017-03-23T15:26:22.168Z,97.41
2017-03-23T15:27:34.103Z,97.31
2017-03-23T15:28:46.306Z,98.17
2017-03-23T15:29:58.881Z,98.26
2017-03-23T15:31:11.416Z,97.78
2017-03-23T15:32:23.935Z,98.36
2017-03-23T15:33:36.186Z,98.26